Time;durP1;ratioP1;P1;durP2;ratioP2;P2;SDS_P1;SDS_P2;PMS_P1;PMS_P2;Temp;Humidity;BMP_temperature;BMP_pressure;BME280_temperature;BME280_humidity;BME280_pressure;Samples;Min_cycle;Max_cycle;Signal;HPM_P1;HPM_P2
2021/03/23 00:01:56;;;;;;;4.20;1.98;;;;;;;0.93;52.11;98791.05;1779097;80;21170;-39
2021/03/23 00:04:24;;;;;;;3.12;2.00;;;;;;;0.87;52.31;98795.77;1779241;80;21572;-39
2021/03/23 00:06:52;;;;;;;5.05;1.92;;;;;;;0.83;52.66;98790.23;1780435;80;21557;-39
2021/03/23 00:09:20;;;;;;;5.92;2.10;;;;;;;0.79;52.91;98793.83;1780831;80;21534;-39
2021/03/23 00:11:48;;;;;;;4.50;2.27;;;;;;;0.73;53.02;98789.72;1780809;80;21139;-39
2021/03/23 00:14:16;;;;;;;4.22;2.20;;;;;;;0.69;53.18;98794.10;1780877;80;21163;-39
2021/03/23 00:16:45;;;;;;;4.95;2.60;;;;;;;0.63;53.48;98798.02;1780803;80;21154;-39
2021/03/23 00:19:14;;;;;;;5.17;2.85;;;;;;;0.62;53.65;98792.44;1780968;80;21143;-39
2021/03/23 00:21:42;;;;;;;6.30;2.80;;;;;;;0.57;53.85;98789.91;1780816;80;21200;-39
2021/03/23 00:24:10;;;;;;;5.28;2.60;;;;;;;0.57;53.87;98784.58;1780717;80;21146;-39
2021/03/23 00:26:40;;;;;;;4.95;2.70;;;;;;;0.59;54.29;98790.38;1780888;80;21016;-39
2021/03/23 00:29:08;;;;;;;6.37;3.08;;;;;;;0.60;54.07;98786.62;1780753;80;21127;-39
2021/03/23 00:34:37;;;;;;;7.28;2.90;;;;;;;0.52;53.96;98777.50;1836073;78;22278;-39
2021/03/23 00:37:05;;;;;;;5.92;2.58;;;;;;;0.47;54.22;98790.17;1808288;79;21043;-39
2021/03/23 00:39:33;;;;;;;5.40;2.70;;;;;;;0.46;54.23;98789.92;1808313;79;21298;-38
2021/03/23 00:42:01;;;;;;;5.80;2.70;;;;;;;0.42;54.28;98781.77;1808162;79;21015;-38
2021/03/23 00:44:29;;;;;;;5.55;2.65;;;;;;;0.40;54.38;98790.06;1805687;79;21028;-38
2021/03/23 00:46:57;;;;;;;7.58;2.70;;;;;;;0.38;54.62;98786.93;1776329;80;20957;-39
2021/03/23 00:49:25;;;;;;;5.20;2.77;;;;;;;0.40;54.81;98785.27;1776268;80;21016;-38
2021/03/23 00:51:54;;;;;;;6.22;2.75;;;;;;;0.42;54.92;98783.89;1776480;80;22294;-38
2021/03/23 00:54:22;;;;;;;6.55;2.42;;;;;;;0.48;54.94;98781.09;1776453;80;20992;-39
2021/03/23 00:56:50;;;;;;;4.90;2.77;;;;;;;0.54;54.98;98781.17;1776301;80;20944;-39
2021/03/23 00:59:18;;;;;;;6.37;3.12;;;;;;;0.57;54.99;98783.24;1776238;80;21094;-38
2021/03/23 01:01:46;;;;;;;4.35;2.35;;;;;;;0.60;55.13;98782.62;1776353;80;21102;-38
2021/03/23 01:04:15;;;;;;;5.37;2.12;;;;;;;0.63;55.20;98782.02;1775211;80;21193;-39
2021/03/23 01:06:43;;;;;;;5.25;3.05;;;;;;;0.61;55.25;98784.20;1776295;80;21178;-39
2021/03/23 01:09:11;;;;;;;5.75;2.58;;;;;;;0.55;55.29;98780.87;1776192;80;21027;-38
2021/03/23 01:11:40;;;;;;;7.47;3.08;;;;;;;0.54;55.10;98785.17;1776182;80;21162;-39
2021/03/23 01:14:08;;;;;;;5.10;2.42;;;;;;;0.48;55.21;98778.42;1776232;80;21178;-38
2021/03/23 01:16:35;;;;;;;4.78;2.50;;;;;;;0.40;55.06;98782.06;1776280;80;21374;-38
2021/03/23 01:19:03;;;;;;;5.42;2.60;;;;;;;0.37;54.89;98776.56;1776310;80;21600;-38
2021/03/23 01:21:31;;;;;;;7.53;2.72;;;;;;;0.34;54.93;98774.48;1776348;80;21134;-39
2021/03/23 01:23:59;;;;;;;4.72;2.55;;;;;;;0.33;54.51;98775.06;1776129;80;21036;-39
2021/03/23 01:26:27;;;;;;;5.20;2.65;;;;;;;0.25;54.63;98773.12;1776263;80;21170;-38
2021/03/23 01:28:55;;;;;;;6.17;2.98;;;;;;;0.24;54.64;98774.20;1776332;80;21327;-39
2021/03/23 01:31:23;;;;;;;6.08;2.30;;;;;;;0.23;54.77;98777.20;1776082;80;21182;-38
2021/03/23 01:33:52;;;;;;;7.08;2.80;;;;;;;0.26;54.65;98773.36;1770214;80;21150;-39
2021/03/23 01:36:19;;;;;;;6.28;2.80;;;;;;;0.29;54.53;98778.08;1765542;81;21155;-38
2021/03/23 01:38:47;;;;;;;5.55;2.30;;;;;;;0.30;54.61;98775.66;1765520;81;21135;-38
2021/03/23 01:41:15;;;;;;;5.67;2.92;;;;;;;0.31;54.58;98783.90;1765490;81;21276;-38
2021/03/23 01:43:43;;;;;;;4.90;2.50;;;;;;;0.32;54.55;98776.69;1765621;81;21190;-38
2021/03/23 01:46:39;;;;;;;6.22;2.45;;;;;;;0.35;54.64;98772.86;1760373;79;21147;-39
2021/03/23 01:49:21;;;;;;;5.35;2.35;;;;;;;0.31;54.66;98774.56;1765119;81;21157;-38
2021/03/23 01:51:54;;;;;;;4.83;2.30;;;;;;;0.24;55.04;98774.20;1765220;81;21155;-38
2021/03/23 01:54:24;;;;;;;6.85;2.62;;;;;;;0.18;55.26;98776.78;1765024;80;21360;-39
2021/03/23 01:56:56;;;;;;;4.97;2.37;;;;;;;0.13;55.41;98783.57;1765044;81;21048;-39
2021/03/23 01:59:24;;;;;;;5.22;2.50;;;;;;;0.11;55.42;98770.29;1764970;81;21143;-39
2021/03/23 02:01:53;;;;;;;6.05;2.40;;;;;;;0.08;55.49;98777.03;1765086;81;21035;-39
2021/03/23 02:04:21;;;;;;;6.28;2.45;;;;;;;0.09;55.41;98771.95;1765290;81;21147;-38
2021/03/23 02:06:49;;;;;;;4.08;2.30;;;;;;;0.13;55.38;98771.58;1765024;81;21279;-39
2021/03/23 02:09:29;;;;;;;4.75;2.17;;;;;;;0.16;55.41;98774.16;1764936;81;21143;-39
2021/03/23 02:12:08;;;;;;;6.12;2.55;;;;;;;0.22;55.17;98766.28;1765102;81;21143;-39
2021/03/23 02:14:43;;;;;;;6.87;2.20;;;;;;;0.23;55.30;98775.32;1765000;81;21174;-39
2021/03/23 02:17:29;;;;;;;5.30;2.20;;;;;;;0.28;55.45;98768.53;1764726;81;21194;-38
2021/03/23 02:20:09;;;;;;;4.85;2.15;;;;;;;0.30;55.41;98769.53;1763045;81;21395;-39
2021/03/23 02:22:42;;;;;;;4.80;2.52;;;;;;;0.32;55.43;98771.36;1764993;81;21178;-38
2021/03/23 02:25:21;;;;;;;4.92;2.05;;;;;;;0.36;55.26;98778.98;1764949;81;21173;-39
2021/03/23 02:27:51;;;;;;;6.72;2.92;;;;;;;0.36;55.14;98781.10;1763982;81;21150;-38
2021/03/23 02:30:27;;;;;;;6.40;2.60;;;;;;;0.19;55.10;98789.02;1765255;81;21170;-39
2021/03/23 02:32:55;;;;;;;9.20;2.60;;;;;;;0.19;55.10;98789.02;1764746;79;21577;-39
2021/03/23 02:35:24;;;;;;;6.90;2.85;;;;;;;0.07;55.28;98786.11;1764234;81;21127;-38
2021/03/23 02:37:52;;;;;;;8.15;2.67;;;;;;;0.08;55.42;98789.02;1765003;81;20984;-39
2021/03/23 02:40:20;;;;;;;5.33;2.70;;;;;;;0.11;55.53;98791.61;1765005;81;20992;-39
2021/03/23 02:42:48;;;;;;;5.65;2.77;;;;;;;0.11;55.38;98787.08;1765086;81;21111;-38
2021/03/23 02:45:17;;;;;;;5.37;2.60;;;;;;;0.09;55.38;98787.94;1765005;79;21186;-38
2021/03/23 02:47:44;;;;;;;4.85;2.15;;;;;;;0.12;55.44;98784.66;1765128;81;21573;-38
2021/03/23 02:50:14;;;;;;;5.58;2.65;;;;;;;0.16;55.22;98789.61;1765034;80;21560;-38
2021/03/23 02:52:42;;;;;;;4.58;2.37;;;;;;;0.16;55.23;98789.61;1765217;81;21565;-39
2021/03/23 02:55:11;;;;;;;5.50;2.67;;;;;;;0.20;55.24;98787.91;1765029;81;21585;-38
2021/03/23 02:57:39;;;;;;;4.58;2.62;;;;;;;0.25;55.20;98793.11;1765022;81;21367;-39
2021/03/23 03:00:11;;;;;;;6.37;2.85;;;;;;;0.34;55.11;98791.81;1764887;81;21113;-38
2021/03/23 03:02:39;;;;;;;5.97;2.90;;;;;;;0.39;55.06;98793.02;1765230;79;21114;-39
2021/03/23 03:05:08;;;;;;;7.55;2.75;;;;;;;0.44;55.14;98791.02;1765062;81;22092;-39
2021/03/23 03:07:36;;;;;;;6.50;2.67;;;;;;;0.49;54.80;98788.77;1765279;81;21095;-38
2021/03/23 03:10:05;;;;;;;4.50;2.65;;;;;;;0.53;54.75;98790.29;1764939;80;21477;-38
2021/03/23 03:12:33;;;;;;;4.70;2.27;;;;;;;0.59;54.72;98787.70;1765229;81;21585;-39
2021/03/23 03:15:02;;;;;;;6.35;2.85;;;;;;;0.62;54.86;98781.23;1764910;81;21594;-38
2021/03/23 03:17:30;;;;;;;5.62;2.65;;;;;;;0.69;54.77;98786.89;1764917;81;21145;-39
2021/03/23 03:19:59;;;;;;;8.13;2.70;;;;;;;0.73;54.69;98791.84;1765019;81;21155;-39
2021/03/23 03:22:27;;;;;;;7.30;2.50;;;;;;;0.75;54.74;98789.66;1764954;81;21358;-39
2021/03/23 03:24:54;;;;;;;5.05;2.58;;;;;;;0.80;54.56;98788.73;1764926;81;21108;-39
2021/03/23 03:27:22;;;;;;;4.97;2.45;;;;;;;0.82;54.49;98793.23;1764849;81;20976;-39
2021/03/23 03:29:50;;;;;;;5.83;2.50;;;;;;;0.85;54.39;98788.60;1764966;81;21123;-38
2021/03/23 03:32:18;;;;;;;8.08;2.70;;;;;;;0.88;54.47;98791.43;1764897;81;21099;-38
2021/03/23 03:34:46;;;;;;;4.55;2.60;;;;;;;0.90;54.51;98788.46;1776113;80;22138;-39
2021/03/23 03:37:14;;;;;;;5.28;3.10;;;;;;;0.90;54.55;98787.13;1781858;80;21012;-38
2021/03/23 03:39:43;;;;;;;5.10;2.70;;;;;;;0.91;54.43;98788.70;1781905;79;20995;-39
2021/03/23 03:42:11;;;;;;;7.95;3.17;;;;;;;0.91;54.63;98791.38;1781848;80;21166;-38
2021/03/23 03:44:39;;;;;;;5.58;2.83;;;;;;;0.96;54.52;98791.23;1786714;79;21142;-38
2021/03/23 03:47:08;;;;;;;6.10;3.17;;;;;;;0.96;54.46;98793.91;1813951;79;21341;-39
2021/03/23 03:49:36;;;;;;;6.50;2.98;;;;;;;0.99;54.25;98795.94;1813967;79;21608;-38
2021/03/23 03:52:08;;;;;;;6.05;3.12;;;;;;;0.96;54.17;98792.56;1814235;78;21025;-39
2021/03/23 03:54:35;;;;;;;;;;;;;;;0.90;54.27;98795.67;1816641;79;21130;-39
2021/03/23 03:57:05;;;;;;;4.85;2.85;;;;;;;0.89;54.53;98788.22;1813970;78;20295;-39
2021/03/23 03:59:33;;;;;;;4.85;2.80;;;;;;;0.85;54.42;98795.27;1814099;78;21355;-38
2021/03/23 04:02:01;;;;;;;4.67;2.80;;;;;;;0.84;54.25;98797.70;1814001;78;21129;-38
2021/03/23 04:04:29;;;;;;;6.30;3.00;;;;;;;0.80;54.31;98798.08;1813979;79;21008;-39
2021/03/23 04:06:57;;;;;;;6.17;3.05;;;;;;;0.79;54.46;98797.83;1813997;79;21122;-38
2021/03/23 04:09:26;;;;;;;5.28;3.00;;;;;;;0.81;54.45;98798.33;1813843;79;21170;-38
2021/03/23 04:11:54;;;;;;;6.12;3.02;;;;;;;0.83;54.54;98804.12;1813992;78;21348;-38
2021/03/23 04:14:23;;;;;;;3.87;2.77;;;;;;;0.83;54.50;98800.91;1813744;79;21201;-39
2021/03/23 04:16:51;;;;;;;6.37;3.08;;;;;;;0.83;54.50;98804.91;1814030;79;21000;-38
2021/03/23 04:19:20;;;;;;;6.50;3.47;;;;;;;0.81;54.62;98803.66;1814198;79;21150;-38
2021/03/23 04:21:47;;;;;;;9.15;3.30;;;;;;;0.83;54.72;98808.12;1808451;78;21127;-39
2021/03/23 04:24:15;;;;;;;5.28;2.70;;;;;;;0.83;54.72;98808.12;1813924;79;21275;-39
2021/03/23 04:26:44;;;;;;;6.95;2.60;;;;;;;0.87;54.60;98814.44;1813890;79;21126;-39
2021/03/23 04:29:12;;;;;;;6.35;2.83;;;;;;;0.89;54.55;98816.23;1813890;79;21004;-39
2021/03/23 04:31:46;;;;;;;5.42;2.70;;;;;;;0.85;54.68;98809.95;1814002;79;21142;-39
2021/03/23 04:34:13;;;;;;;6.15;3.10;;;;;;;0.88;54.70;98814.66;1813695;79;21150;-39
2021/03/23 04:36:43;;;;;;;8.68;3.27;;;;;;;0.91;54.78;98819.94;1809953;79;23504;-39
2021/03/23 04:39:13;;;;;;;6.70;2.95;;;;;;;0.94;54.78;98821.44;1813847;79;21640;-39
2021/03/23 04:41:40;;;;;;;4.08;2.22;;;;;;;0.97;54.79;98820.80;1814296;79;21485;-39
2021/03/23 04:44:09;;;;;;;3.77;2.40;;;;;;;1.00;54.54;98819.42;1813925;79;21549;-39
2021/03/23 04:46:36;;;;;;;5.70;2.55;;;;;;;0.98;54.44;98829.06;1814031;79;21090;-39
2021/03/23 04:49:05;;;;;;;6.42;2.95;;;;;;;1.00;54.43;98828.22;1814062;79;22318;-39
2021/03/23 04:51:33;;;;;;;4.37;2.67;;;;;;;0.96;54.47;98825.14;1813909;78;21091;-39
2021/03/23 04:54:05;;;;;;;6.97;2.70;;;;;;;0.91;54.33;98827.95;1813970;79;21141;-39
2021/03/23 04:56:35;;;;;;;5.05;2.52;;;;;;;0.79;54.64;98826.64;1813975;79;21510;-39
2021/03/23 04:59:04;;;;;;;5.40;2.70;;;;;;;0.78;55.02;98834.94;1813964;79;21133;-39
2021/03/23 05:01:31;;;;;;;7.85;3.40;;;;;;;0.74;55.04;98832.65;1814011;79;21416;-39
2021/03/23 05:04:05;;;;;;;4.03;2.87;;;;;;;0.71;55.27;98827.94;1814247;79;21533;-39
2021/03/23 05:06:33;;;;;;;7.62;2.70;;;;;;;0.67;55.39;98836.33;1813442;79;21672;-39
2021/03/23 05:09:02;;;;;;;5.03;2.50;;;;;;;0.66;55.45;98836.08;1813946;79;21166;-39
2021/03/23 05:11:32;;;;;;;6.40;2.20;;;;;;;0.62;55.58;98832.45;1785982;79;21138;-39
2021/03/23 05:14:03;;;;;;;6.33;2.60;;;;;;;0.65;55.47;98835.83;1782045;80;21194;-39
2021/03/23 05:16:31;;;;;;;7.05;2.90;;;;;;;0.66;55.61;98834.74;1781972;80;21055;-39
2021/03/23 05:19:00;;;;;;;5.33;2.50;;;;;;;0.67;55.46;98837.66;1781816;80;21871;-39
2021/03/23 05:21:28;;;;;;;5.75;2.62;;;;;;;0.63;55.63;98844.70;1782085;80;21573;-39
2021/03/23 05:23:59;;;;;;;7.03;2.75;;;;;;;0.62;55.26;98843.13;1782161;80;22144;-41
2021/03/23 05:26:27;;;;;;;6.00;2.95;;;;;;;0.52;55.76;98840.17;1782023;79;21369;-41
2021/03/23 05:28:55;;;;;;;9.75;3.10;;;;;;;0.52;55.82;98838.05;1782037;80;21131;-39
2021/03/23 05:31:23;;;;;;;7.00;2.72;;;;;;;0.49;56.15;98843.97;1782019;79;21158;-39
2021/03/23 05:33:53;;;;;;;6.67;2.95;;;;;;;0.51;55.86;98849.25;1781986;80;21174;-39
2021/03/23 05:36:22;;;;;;;6.92;2.60;;;;;;;0.53;56.13;98840.95;1782123;79;21157;-39
2021/03/23 05:38:51;;;;;;;5.58;2.45;;;;;;;0.56;55.83;98848.34;1781961;80;21209;-39
2021/03/23 05:41:45;;;;;;;6.10;2.80;;;;;;;0.55;55.97;98844.09;1781996;80;21557;-39
2021/03/23 05:44:43;;;;;;;5.20;2.42;;;;;;;0.58;55.81;98844.83;1781862;80;21166;-39
2021/03/23 05:47:17;;;;;;;7.33;2.90;;;;;;;0.54;55.83;98845.17;1781870;80;21090;-39
2021/03/23 05:50:00;;;;;;;5.25;2.67;;;;;;;0.54;55.83;98841.97;1782162;80;21620;-40
2021/03/23 05:52:32;;;;;;;8.85;3.47;;;;;;;0.58;55.95;98851.50;1782064;79;21156;-39
2021/03/23 05:55:06;;;;;;;6.37;3.33;;;;;;;0.63;55.71;98845.46;1781808;80;21138;-39
2021/03/23 05:57:38;;;;;;;5.97;2.72;;;;;;;0.72;55.77;98850.32;1782075;80;21119;-40
2021/03/23 06:00:25;;;;;;;7.22;2.90;;;;;;;0.79;55.65;98847.19;1739570;82;21542;-39
2021/03/23 06:03:18;;;;;;;8.28;3.67;;;;;;;0.85;55.65;98851.31;1739148;82;21185;-39
2021/03/23 06:06:01;;;;;;;6.12;2.72;;;;;;;0.90;55.56;98848.50;1712717;83;21254;-39
2021/03/23 06:08:37;;;;;;;7.35;2.77;;;;;;;0.92;55.15;98846.30;1781787;80;21141;-39
2021/03/23 06:11:31;;;;;;;6.67;3.02;;;;;;;0.93;55.09;98847.09;1781995;80;21098;-39
2021/03/23 06:14:28;;;;;;;4.55;2.45;;;;;;;0.92;55.31;98849.54;1781911;80;21173;-39
2021/03/23 06:17:19;;;;;;;4.55;2.25;;;;;;;1.00;54.62;98834.89;1782439;79;21115;-40
2021/03/23 06:20:21;;;;;;;7.72;3.30;;;;;;;1.01;54.44;98841.02;1781996;80;21153;-40
2021/03/23 06:23:32;;;;;;;7.08;3.60;;;;;;;1.05;54.43;98842.75;1781938;80;21077;-40
2021/03/23 06:26:09;;;;;;;7.67;3.12;;;;;;;1.14;53.91;98846.23;1781960;80;21170;-40
2021/03/23 06:29:06;;;;;;;6.72;2.65;;;;;;;1.23;53.52;98848.92;1782112;80;21150;-40
2021/03/23 06:32:01;;;;;;;4.83;2.33;;;;;;;1.36;53.87;98848.55;1752264;80;21138;-40
2021/03/23 06:34:33;;;;;;;4.50;2.10;;;;;;;1.49;53.32;98858.34;1781864;80;21189;-40
2021/03/23 06:37:02;;;;;;;3.72;2.02;;;;;;;1.60;52.70;98857.71;1781895;80;21165;-41
2021/03/23 06:39:31;;;;;;;4.47;2.03;;;;;;;1.73;51.86;98855.47;1753984;80;21186;-40
2021/03/23 06:42:01;;;;;;;6.77;2.70;;;;;;;1.82;51.33;98862.70;1782117;79;21373;-41
2021/03/23 06:44:38;;;;;;;6.10;3.10;;;;;;;1.91;51.41;98867.49;1784593;79;21174;-40
2021/03/23 06:47:35;;;;;;;5.00;2.60;;;;;;;2.00;51.05;98862.93;1814058;79;21434;-40
2021/03/23 06:50:30;;;;;;;4.12;2.10;;;;;;;2.06;50.64;98868.36;1791919;79;21019;-40
2021/03/23 06:53:19;;;;;;;4.80;2.22;;;;;;;2.21;49.88;98867.89;1814035;79;21130;-40
2021/03/23 06:55:49;;;;;;;3.27;1.87;;;;;;;2.34;49.35;98866.92;1813964;79;21367;-40
2021/03/23 06:58:33;;;;;;;3.52;2.08;;;;;;;2.45;48.82;98868.17;1814204;79;22063;-41
2021/03/23 07:01:23;;;;;;;6.20;2.22;;;;;;;2.62;47.56;98865.44;1814062;79;21177;-40
2021/03/23 07:03:54;;;;;;;5.87;2.30;;;;;;;2.76;48.05;98865.24;1814110;78;21706;-40
2021/03/23 07:06:29;;;;;;;3.92;2.10;;;;;;;2.92;46.95;98866.30;1814031;79;21593;-41
2021/03/23 07:12:01;;;;;;;4.80;2.37;;;;;;;3.09;45.25;98867.34;1793896;78;27778;-39
2021/03/23 07:14:36;;;;;;;3.92;2.25;;;;;;;3.45;43.84;98861.72;1784158;80;21114;-39
2021/03/23 07:17:12;;;;;;;6.05;2.30;;;;;;;3.66;43.68;98865.77;1784049;80;21364;-39
2021/03/23 07:19:57;;;;;;;3.45;1.77;;;;;;;3.61;43.85;98862.50;1807060;79;20980;-39
2021/03/23 07:22:43;;;;;;;4.20;1.60;;;;;;;3.61;41.59;98862.50;1816127;79;21004;-39
2021/03/23 07:25:35;;;;;;;3.65;1.45;;;;;;;3.62;41.60;98856.82;1816163;79;21353;-39
2021/03/23 07:28:36;;;;;;;2.90;1.47;;;;;;;3.75;40.82;98857.11;1816246;79;21013;-39
2021/03/23 07:31:22;;;;;;;5.05;1.37;;;;;;;3.86;40.66;98864.22;1816204;79;21274;-39
2021/03/23 07:34:13;;;;;;;1.72;1.25;;;;;;;3.97;39.93;98861.94;1816202;79;21873;-39
2021/03/23 07:36:53;;;;;;;2.67;1.37;;;;;;;4.07;38.44;98860.17;1816284;79;21632;-39
2021/03/23 07:40:02;;;;;;;3.52;1.30;;;;;;;4.05;38.57;98859.17;1816178;79;21127;-39
2021/03/23 07:42:46;;;;;;;1.45;1.12;;;;;;;3.98;37.69;98860.80;1816052;78;21150;-40
2021/03/23 07:45:53;;;;;;;2.72;1.30;;;;;;;3.86;37.76;98862.33;1798611;79;21616;-39
2021/03/23 07:48:28;;;;;;;2.22;1.27;;;;;;;3.77;37.48;98867.52;1772586;81;21060;-39
2021/03/23 07:51:17;;;;;;;2.35;1.17;;;;;;;3.55;37.26;98867.25;1772225;81;21134;-39
2021/03/23 07:53:45;;;;;;;2.47;1.17;;;;;;;3.36;36.78;98864.21;1772940;81;21162;-39
2021/03/23 07:56:30;;;;;;;4.97;1.50;;;;;;;3.39;36.83;98859.53;1772578;81;21135;-39
2021/03/23 07:59:14;;;;;;;2.42;1.22;;;;;;;3.44;37.30;98855.33;1772701;80;21439;-40
2021/03/23 08:02:26;;;;;;;1.80;1.30;;;;;;;3.68;37.93;98856.84;1764574;81;21158;-39
2021/03/23 08:05:02;;;;;;;2.30;1.20;;;;;;;3.97;37.17;98855.98;1772755;81;21138;-39
2021/03/23 08:07:38;;;;;;;2.85;1.25;;;;;;;4.19;35.65;98864.27;1772475;80;21166;-39
2021/03/23 08:10:33;;;;;;;2.45;1.07;;;;;;;4.25;35.91;98846.86;1773887;80;21194;-39
2021/03/23 08:13:28;;;;;;;1.90;1.10;;;;;;;4.24;35.58;98853.33;1784008;80;22252;-39
2021/03/23 08:16:11;;;;;;;3.10;1.50;;;;;;;4.17;35.33;98854.41;1783900;80;21103;-40
2021/03/23 08:19:18;;;;;;;2.58;1.45;;;;;;;4.08;35.34;98851.80;1783636;80;21146;-39
2021/03/23 08:22:04;;;;;;;2.83;1.42;;;;;;;3.92;35.75;98852.95;1783739;80;21173;-39
2021/03/23 08:24:56;;;;;;;3.40;1.12;;;;;;;3.86;36.02;98847.58;1783378;80;21114;-39
2021/03/23 08:27:47;;;;;;;2.62;1.37;;;;;;;3.82;35.86;98846.67;1783410;80;21253;-39
2021/03/23 08:30:51;;;;;;;3.85;1.27;;;;;;;3.77;35.71;98844.18;1783371;80;21414;-39
2021/03/23 08:33:57;;;;;;;2.95;1.50;;;;;;;3.70;35.91;98847.92;1783269;80;21213;-40
2021/03/23 08:37:02;;;;;;;3.55;1.40;;;;;;;3.63;36.33;98840.94;1783358;80;20988;-39
2021/03/23 08:40:09;;;;;;;2.85;1.40;;;;;;;3.59;36.26;98841.38;1783327;80;21118;-40
2021/03/23 08:42:37;;;;;;;2.80;1.57;;;;;;;3.55;36.38;98843.14;1783265;80;23509;-40
2021/03/23 08:45:23;;;;;;;3.45;1.50;;;;;;;3.62;36.56;98840.73;1793952;79;21147;-40
2021/03/23 08:47:58;;;;;;;2.85;1.30;;;;;;;3.70;36.10;98841.22;1812579;79;21047;-40
2021/03/23 08:50:38;;;;;;;2.90;1.27;;;;;;;3.63;35.96;98841.52;1815434;78;21205;-40
2021/03/23 08:53:34;;;;;;;2.75;1.40;;;;;;;3.61;36.56;98844.52;1815483;78;21649;-40
2021/03/23 08:56:07;;;;;;;3.02;1.80;;;;;;;3.60;36.76;98840.81;1815699;79;22275;-40
2021/03/23 08:58:48;;;;;;;2.62;1.40;;;;;;;3.56;36.74;98847.94;1815545;78;21134;-40
2021/03/23 09:01:40;;;;;;;2.58;1.30;;;;;;;3.60;37.04;98838.92;1815403;79;21189;-40
2021/03/23 09:04:24;;;;;;;3.37;1.37;;;;;;;3.83;36.91;98836.15;1815443;78;21166;-40
2021/03/23 09:07:00;;;;;;;3.95;1.35;;;;;;;4.24;35.94;98831.87;1815589;79;21000;-40
2021/03/23 09:09:47;;;;;;;1.92;1.20;;;;;;;4.51;35.09;98845.25;1815573;78;22284;-40
2021/03/23 09:12:42;;;;;;;2.10;1.15;;;;;;;4.59;35.28;98850.55;1805867;79;21419;-40
2021/03/23 09:15:24;;;;;;;1.82;1.17;;;;;;;4.57;33.86;98842.58;1779015;79;21151;-40
2021/03/23 09:18:04;;;;;;;1.85;1.02;;;;;;;4.44;33.99;98839.09;1768454;80;21171;-40
2021/03/23 09:20:41;;;;;;;2.75;1.10;;;;;;;4.29;33.92;98841.84;1768487;81;21159;-40
2021/03/23 09:23:24;;;;;;;2.70;1.30;;;;;;;4.11;34.18;98840.99;1768488;81;21204;-40
2021/03/23 09:26:01;;;;;;;2.10;1.30;;;;;;;4.02;34.23;98838.94;1768396;80;21191;-40
2021/03/23 09:28:40;;;;;;;4.15;1.57;;;;;;;3.98;34.16;98838.00;1768573;81;21587;-40
2021/03/23 09:31:30;;;;;;;3.65;1.27;;;;;;;3.90;34.47;98836.42;1768120;81;21171;-40
2021/03/23 09:33:58;;;;;;;1.87;1.15;;;;;;;3.87;35.29;98842.42;1768498;81;21162;-40
2021/03/23 09:36:45;;;;;;;4.28;2.08;;;;;;;3.92;35.23;98828.81;1768422;81;21390;-40
2021/03/23 09:39:29;;;;;;;2.27;1.12;;;;;;;4.04;36.09;98834.02;1768410;81;21127;-40
2021/03/23 09:42:20;;;;;;;3.12;1.40;;;;;;;4.20;35.79;98831.75;1768564;81;21656;-40
2021/03/23 09:45:15;;;;;;;1.40;1.07;;;;;;;4.32;35.08;98839.04;1762036;79;21210;-40
2021/03/23 09:48:14;;;;;;;5.60;1.17;;;;;;;4.43;35.31;98837.52;1804437;79;21538;-40
2021/03/23 09:50:57;;;;;;;1.72;0.90;;;;;;;4.69;35.15;98835.36;1804502;79;21546;-40
2021/03/23 09:53:36;;;;;;;1.20;0.82;;;;;;;4.91;33.94;98834.70;1802495;79;21173;-40
2021/03/23 09:56:19;;;;;;;2.60;1.05;;;;;;;4.96;33.69;98829.11;1804529;79;21020;-40
2021/03/23 09:58:57;;;;;;;1.98;1.00;;;;;;;4.94;33.27;98835.39;1804271;79;21166;-40
2021/03/23 10:01:25;;;;;;;1.70;1.00;;;;;;;4.90;33.51;98837.94;1781660;79;21096;-40
2021/03/23 10:03:55;;;;;;;2.75;1.35;;;;;;;5.00;33.39;98835.37;1804307;79;21198;-40
2021/03/23 10:06:28;;;;;;;2.08;0.85;;;;;;;5.23;34.12;98823.84;1804470;79;21593;-40
2021/03/23 10:09:07;;;;;;;1.52;1.00;;;;;;;5.59;33.81;98845.89;1804359;79;21108;-40
2021/03/23 10:11:42;;;;;;;1.27;0.93;;;;;;;5.80;33.02;98840.92;1801016;79;21628;-40
2021/03/23 10:14:31;;;;;;;3.70;1.10;;;;;;;5.75;33.77;98831.74;1797021;79;21135;-40
2021/03/23 10:17:14;;;;;;;2.12;1.10;;;;;;;5.60;33.62;98834.02;1792722;79;23517;-40
2021/03/23 10:19:58;;;;;;;2.30;1.07;;;;;;;5.33;33.25;98837.39;1835959;78;22745;-39
2021/03/23 10:22:31;;;;;;;1.62;0.95;;;;;;;5.17;33.00;98833.27;1808245;79;21040;-39
2021/03/23 10:25:03;;;;;;;15.03;8.40;;;;;;;5.12;33.18;98834.84;1808132;79;21352;-39
2021/03/23 10:27:33;;;;;;;;;;;;;;;5.17;33.29;98831.14;1810892;79;21035;-39
2021/03/23 10:30:15;;;;;;;4.47;3.40;;;;;;;5.39;33.18;98814.55;1808355;79;20256;-39
2021/03/23 10:32:47;;;;;;;1.75;1.07;;;;;;;5.76;33.59;98810.45;1808108;79;20984;-39
2021/03/23 10:35:29;;;;;;;4.00;1.30;;;;;;;6.45;32.23;98805.47;1808419;79;21601;-39
2021/03/23 10:38:18;;;;;;;3.35;1.40;;;;;;;7.01;31.51;98809.38;1808272;79;22272;-39
2021/03/23 10:41:02;;;;;;;2.62;1.25;;;;;;;7.19;30.42;98813.27;1808499;79;20985;-39
2021/03/23 10:43:37;;;;;;;2.02;1.05;;;;;;;6.87;30.05;98822.50;1804204;79;21047;-39
2021/03/23 10:46:25;;;;;;;1.70;1.20;;;;;;;6.33;30.39;98828.42;1784122;79;21137;-39
2021/03/23 10:48:53;;;;;;;4.25;1.47;;;;;;;6.09;31.07;98829.88;1674799;84;21188;-39
2021/03/23 10:51:28;;;;;;;3.17;1.62;;;;;;;6.31;31.74;98832.02;1745467;80;22213;-39
2021/03/23 10:54:13;;;;;;;1.55;0.93;;;;;;;6.69;30.96;98828.77;1776222;80;21032;-39
2021/03/23 10:56:46;;;;;;;4.60;1.15;;;;;;;7.11;29.46;98823.67;1776402;80;21550;-39
2021/03/23 10:59:22;;;;;;;1.72;1.17;;;;;;;7.38;29.70;98832.20;1776246;80;21039;-39
2021/03/23 11:02:10;;;;;;;1.65;1.00;;;;;;;7.63;29.84;98831.97;1776346;80;21141;-40
2021/03/23 11:04:41;;;;;;;1.50;1.00;;;;;;;7.78;30.81;98845.98;1775148;80;22341;-39
2021/03/23 11:07:22;;;;;;;2.65;1.35;;;;;;;7.72;31.57;98850.09;1773095;80;21596;-39
2021/03/23 11:09:54;;;;;;;3.22;1.37;;;;;;;7.39;33.65;98862.08;1776293;80;21027;-39
2021/03/23 11:12:22;;;;;;;4.05;1.70;;;;;;;6.86;34.57;98857.31;1776274;80;21201;-39
2021/03/23 11:14:52;;;;;;;1.98;1.32;;;;;;;6.65;35.18;98857.53;1776203;80;21150;-39
2021/03/23 11:17:23;;;;;;;1.85;1.10;;;;;;;6.82;35.00;98855.09;1776240;80;21247;-39
2021/03/23 11:19:56;;;;;;;1.77;1.02;;;;;;;7.11;33.98;98843.10;1766852;80;21056;-39
2021/03/23 11:22:33;;;;;;;2.90;1.50;;;;;;;7.51;33.05;98841.51;1766014;79;21103;-39
2021/03/23 11:25:03;;;;;;;1.92;0.80;;;;;;;7.94;33.10;98839.95;1765444;81;21095;-39
2021/03/23 11:27:31;;;;;;;2.77;0.90;;;;;;;8.20;30.06;98817.16;1765774;80;22150;-40
2021/03/23 11:29:59;;;;;;;5.78;1.30;;;;;;;8.45;29.51;98816.88;1765122;80;21353;-40
2021/03/23 11:32:30;;;;;;;1.30;1.05;;;;;;;8.60;29.16;98820.05;1764945;81;21198;-39
2021/03/23 11:34:58;;;;;;;1.45;1.00;;;;;;;8.65;30.23;98825.94;1765076;80;21012;-39
2021/03/23 11:37:27;;;;;;;1.25;0.80;;;;;;;8.73;30.10;98823.56;1765029;81;21047;-39
2021/03/23 11:39:57;;;;;;;1.93;0.90;;;;;;;8.84;29.63;98817.56;1765147;80;21518;-39
2021/03/23 11:42:33;;;;;;;0.78;0.53;;;;;;;9.05;29.00;98811.92;1764850;81;21615;-39
2021/03/23 11:45:23;;;;;;;1.35;0.72;;;;;;;9.28;28.33;98815.18;1774881;79;20937;-40
2021/03/23 11:48:02;;;;;;;1.45;1.00;;;;;;;9.30;27.31;98815.02;1796423;79;21052;-39
2021/03/23 11:50:33;;;;;;;1.55;1.10;;;;;;;8.98;28.02;98807.77;1796491;79;21131;-39
2021/03/23 11:53:02;;;;;;;2.08;1.15;;;;;;;8.64;29.30;98823.59;1796546;79;21155;-39
2021/03/23 11:55:33;;;;;;;2.65;1.20;;;;;;;8.28;30.74;98829.64;1796408;79;21187;-39
2021/03/23 11:58:03;;;;;;;1.92;1.20;;;;;;;7.80;32.10;98835.60;1796195;79;21685;-39
2021/03/23 12:00:33;;;;;;;;;;;;;;;7.29;34.15;98846.43;1799263;79;21142;-39
2021/03/23 12:03:03;;;;;;;2.72;0.95;;;;;;;6.67;37.82;98865.28;1796508;79;20217;-39
2021/03/23 12:05:36;;;;;;;1.85;0.98;;;;;;;5.93;41.97;98858.62;1796556;79;21055;-39
2021/03/23 12:08:32;;;;;;;3.33;1.05;;;;;;;5.30;43.97;98860.13;1796645;79;22189;-39
2021/03/23 12:11:33;;;;;;;1.70;1.00;;;;;;;4.86;44.89;98855.06;1796132;79;21113;-39
2021/03/23 12:14:43;;;;;;;5.25;1.50;;;;;;;4.55;44.55;98848.28;1796556;79;21159;-39
2021/03/23 12:17:15;;;;;;;1.35;0.82;;;;;;;4.40;43.25;98860.22;1796561;79;21179;-39
2021/03/23 12:19:52;;;;;;;0.78;0.70;;;;;;;4.23;41.45;98857.91;1796408;79;21167;-39
2021/03/23 12:22:23;;;;;;;2.10;0.93;;;;;;;4.11;41.19;98865.13;1795959;79;21197;-39
2021/03/23 12:24:53;;;;;;;2.15;1.05;;;;;;;3.89;44.10;98854.17;1796417;79;21182;-39
2021/03/23 12:27:22;;;;;;;3.00;1.25;;;;;;;3.65;46.83;98893.69;1796614;79;21119;-39
2021/03/23 12:29:50;;;;;;;11.17;2.50;;;;;;;3.44;50.66;98902.22;1785991;79;21163;-39